sensor_id;sensor_type;location;lat;lon;timestamp;P1;durP1;ratioP1;P2;durP2;ratioP2
51184;SDS011;37248;59.350;18.050;2023-01-13T00:00:00;6.13;;;1.65;;
51184;SDS011;37248;59.350;18.050;2023-01-13T00:02:25;4.40;;;1.17;;
51184;SDS011;37248;59.350;18.050;2023-01-13T00:04:51;8.68;;;1.80;;
51184;SDS011;37248;59.350;18.050;2023-01-13T00:07:17;3.53;;;1.17;;
51184;SDS011;37248;59.350;18.050;2023-01-13T00:09:42;5.87;;;1.67;;
51184;SDS011;37248;59.350;18.050;2023-01-13T00:12:07;3.40;;;1.30;;
51184;SDS011;37248;59.350;18.050;2023-01-13T00:14:33;4.60;;;1.23;;
51184;SDS011;37248;59.350;18.050;2023-01-13T00:16:59;4.93;;;1.38;;
51184;SDS011;37248;59.350;18.050;2023-01-13T00:19:24;3.50;;;1.50;;
51184;SDS011;37248;59.350;18.050;2023-01-13T00:21:49;6.27;;;1.73;;
51184;SDS011;37248;59.350;18.050;2023-01-13T00:24:14;3.40;;;1.20;;
51184;SDS011;37248;59.350;18.050;2023-01-13T00:26:40;7.33;;;1.27;;
51184;SDS011;37248;59.350;18.050;2023-01-13T00:29:05;3.73;;;1.47;;
51184;SDS011;37248;59.350;18.050;2023-01-13T00:31:30;4.27;;;1.13;;
51184;SDS011;37248;59.350;18.050;2023-01-13T00:33:56;6.30;;;1.57;;
51184;SDS011;37248;59.350;18.050;2023-01-13T00:36:21;7.15;;;1.73;;
51184;SDS011;37248;59.350;18.050;2023-01-13T00:38:47;3.33;;;1.30;;
51184;SDS011;37248;59.350;18.050;2023-01-13T00:41:13;2.40;;;1.20;;
51184;SDS011;37248;59.350;18.050;2023-01-13T00:43:39;4.82;;;1.30;;
51184;SDS011;37248;59.350;18.050;2023-01-13T00:46:05;7.30;;;1.50;;
51184;SDS011;37248;59.350;18.050;2023-01-13T00:48:31;4.18;;;1.52;;
51184;SDS011;37248;59.350;18.050;2023-01-13T00:51:07;3.75;;;1.23;;
51184;SDS011;37248;59.350;18.050;2023-01-13T00:53:34;2.63;;;1.30;;
51184;SDS011;37248;59.350;18.050;2023-01-13T00:56:06;2.78;;;1.08;;
51184;SDS011;37248;59.350;18.050;2023-01-13T00:58:33;5.10;;;1.70;;
51184;SDS011;37248;59.350;18.050;2023-01-13T01:00:59;4.57;;;1.30;;
51184;SDS011;37248;59.350;18.050;2023-01-13T01:03:25;6.90;;;1.50;;
51184;SDS011;37248;59.350;18.050;2023-01-13T01:05:50;3.90;;;1.30;;
51184;SDS011;37248;59.350;18.050;2023-01-13T01:08:15;7.27;;;1.60;;
51184;SDS011;37248;59.350;18.050;2023-01-13T01:10:41;5.57;;;1.90;;
51184;SDS011;37248;59.350;18.050;2023-01-13T01:13:06;8.70;;;1.97;;
51184;SDS011;37248;59.350;18.050;2023-01-13T01:15:31;8.50;;;1.80;;
51184;SDS011;37248;59.350;18.050;2023-01-13T01:17:56;5.43;;;1.73;;
51184;SDS011;37248;59.350;18.050;2023-01-13T01:20:22;7.67;;;1.70;;
51184;SDS011;37248;59.350;18.050;2023-01-13T01:22:47;9.40;;;1.85;;
51184;SDS011;37248;59.350;18.050;2023-01-13T01:25:12;10.97;;;1.70;;
51184;SDS011;37248;59.350;18.050;2023-01-13T01:27:37;8.07;;;1.58;;
51184;SDS011;37248;59.350;18.050;2023-01-13T01:30:03;8.90;;;1.80;;
51184;SDS011;37248;59.350;18.050;2023-01-13T01:32:28;8.25;;;1.70;;
51184;SDS011;37248;59.350;18.050;2023-01-13T01:34:53;5.90;;;1.43;;
51184;SDS011;37248;59.350;18.050;2023-01-13T01:37:19;5.37;;;1.60;;
51184;SDS011;37248;59.350;18.050;2023-01-13T01:39:44;6.87;;;1.80;;
51184;SDS011;37248;59.350;18.050;2023-01-13T01:42:12;4.07;;;2.20;;
51184;SDS011;37248;59.350;18.050;2023-01-13T01:44:59;6.32;;;2.22;;
51184;SDS011;37248;59.350;18.050;2023-01-13T01:47:24;5.32;;;2.35;;
51184;SDS011;37248;59.350;18.050;2023-01-13T01:49:50;6.03;;;2.10;;
51184;SDS011;37248;59.350;18.050;2023-01-13T01:54:43;4.90;;;1.70;;
51184;SDS011;37248;59.350;18.050;2023-01-13T01:57:12;3.30;;;1.65;;
51184;SDS011;37248;59.350;18.050;2023-01-13T01:59:39;5.80;;;1.85;;
51184;SDS011;37248;59.350;18.050;2023-01-13T02:02:05;4.05;;;1.60;;
51184;SDS011;37248;59.350;18.050;2023-01-13T02:04:32;6.57;;;1.70;;
51184;SDS011;37248;59.350;18.050;2023-01-13T02:06:58;5.80;;;1.38;;
51184;SDS011;37248;59.350;18.050;2023-01-13T02:09:24;5.40;;;1.77;;
51184;SDS011;37248;59.350;18.050;2023-01-13T02:11:50;4.50;;;2.28;;
51184;SDS011;37248;59.350;18.050;2023-01-13T02:14:34;4.43;;;2.50;;
51184;SDS011;37248;59.350;18.050;2023-01-13T02:17:12;3.50;;;2.10;;
51184;SDS011;37248;59.350;18.050;2023-01-13T02:29:56;3.63;;;1.90;;
51184;SDS011;37248;59.350;18.050;2023-01-13T02:32:48;3.60;;;1.90;;
51184;SDS011;37248;59.350;18.050;2023-01-13T02:35:20;3.47;;;2.20;;
51184;SDS011;37248;59.350;18.050;2023-01-13T02:37:46;4.78;;;2.55;;
51184;SDS011;37248;59.350;18.050;2023-01-13T02:45:55;5.97;;;2.50;;
51184;SDS011;37248;59.350;18.050;2023-01-13T02:48:22;4.90;;;2.30;;
51184;SDS011;37248;59.350;18.050;2023-01-13T02:50:50;3.80;;;2.10;;
51184;SDS011;37248;59.350;18.050;2023-01-13T02:53:22;4.22;;;2.40;;
51184;SDS011;37248;59.350;18.050;2023-01-13T02:55:50;4.23;;;2.40;;
51184;SDS011;37248;59.350;18.050;2023-01-13T02:58:17;5.82;;;2.53;;
51184;SDS011;37248;59.350;18.050;2023-01-13T03:00:44;4.53;;;2.60;;
51184;SDS011;37248;59.350;18.050;2023-01-13T03:03:09;4.95;;;2.80;;
51184;SDS011;37248;59.350;18.050;2023-01-13T03:05:35;7.97;;;2.87;;
51184;SDS011;37248;59.350;18.050;2023-01-13T03:13:29;5.80;;;3.80;;
51184;SDS011;37248;59.350;18.050;2023-01-13T03:21:20;4.65;;;3.95;;
51184;SDS011;37248;59.350;18.050;2023-01-13T03:23:49;6.37;;;4.27;;
51184;SDS011;37248;59.350;18.050;2023-01-13T03:26:27;5.55;;;4.20;;
51184;SDS011;37248;59.350;18.050;2023-01-13T03:29:03;5.93;;;3.90;;
51184;SDS011;37248;59.350;18.050;2023-01-13T03:31:30;4.55;;;3.63;;
51184;SDS011;37248;59.350;18.050;2023-01-13T03:34:06;6.05;;;3.78;;
51184;SDS011;37248;59.350;18.050;2023-01-13T03:36:35;5.27;;;4.00;;
51184;SDS011;37248;59.350;18.050;2023-01-13T03:39:05;5.22;;;3.95;;
51184;SDS011;37248;59.350;18.050;2023-01-13T03:41:33;4.53;;;3.70;;
51184;SDS011;37248;59.350;18.050;2023-01-13T03:44:05;7.43;;;4.28;;
51184;SDS011;37248;59.350;18.050;2023-01-13T03:49:40;7.32;;;3.90;;
51184;SDS011;37248;59.350;18.050;2023-01-13T03:52:07;5.10;;;3.50;;
51184;SDS011;37248;59.350;18.050;2023-01-13T03:54:35;5.28;;;3.70;;
51184;SDS011;37248;59.350;18.050;2023-01-13T03:57:03;5.00;;;3.90;;
51184;SDS011;37248;59.350;18.050;2023-01-13T03:59:30;5.22;;;4.00;;
51184;SDS011;37248;59.350;18.050;2023-01-13T04:04:32;5.75;;;3.85;;
51184;SDS011;37248;59.350;18.050;2023-01-13T04:09:42;4.53;;;3.70;;
51184;SDS011;37248;59.350;18.050;2023-01-13T04:12:10;4.55;;;3.30;;
51184;SDS011;37248;59.350;18.050;2023-01-13T04:14:37;5.35;;;3.72;;
51184;SDS011;37248;59.350;18.050;2023-01-13T04:17:03;5.30;;;3.10;;
51184;SDS011;37248;59.350;18.050;2023-01-13T04:19:29;5.23;;;3.50;;
51184;SDS011;37248;59.350;18.050;2023-01-13T04:21:55;7.28;;;3.45;;
51184;SDS011;37248;59.350;18.050;2023-01-13T04:24:20;8.23;;;3.53;;
51184;SDS011;37248;59.350;18.050;2023-01-13T04:26:46;5.17;;;3.27;;
51184;SDS011;37248;59.350;18.050;2023-01-13T04:29:11;6.43;;;3.13;;
51184;SDS011;37248;59.350;18.050;2023-01-13T04:31:36;3.87;;;2.93;;
51184;SDS011;37248;59.350;18.050;2023-01-13T04:34:02;3.77;;;2.90;;
51184;SDS011;37248;59.350;18.050;2023-01-13T04:36:27;4.30;;;3.30;;
51184;SDS011;37248;59.350;18.050;2023-01-13T04:38:55;3.13;;;2.60;;
51184;SDS011;37248;59.350;18.050;2023-01-13T04:41:21;5.13;;;3.25;;
51184;SDS011;37248;59.350;18.050;2023-01-13T04:43:46;5.43;;;2.90;;
51184;SDS011;37248;59.350;18.050;2023-01-13T04:46:11;4.13;;;2.87;;
51184;SDS011;37248;59.350;18.050;2023-01-13T04:48:36;4.75;;;2.85;;
51184;SDS011;37248;59.350;18.050;2023-01-13T04:51:02;3.83;;;2.80;;
51184;SDS011;37248;59.350;18.050;2023-01-13T04:53:27;4.18;;;2.78;;
51184;SDS011;37248;59.350;18.050;2023-01-13T04:55:52;5.83;;;2.60;;
51184;SDS011;37248;59.350;18.050;2023-01-13T04:58:17;3.97;;;2.60;;
51184;SDS011;37248;59.350;18.050;2023-01-13T05:00:43;3.83;;;2.60;;
51184;SDS011;37248;59.350;18.050;2023-01-13T05:03:08;4.93;;;2.47;;
51184;SDS011;37248;59.350;18.050;2023-01-13T05:05:33;4.13;;;2.73;;
51184;SDS011;37248;59.350;18.050;2023-01-13T05:07:59;6.90;;;2.37;;
51184;SDS011;37248;59.350;18.050;2023-01-13T05:10:24;4.27;;;2.37;;
51184;SDS011;37248;59.350;18.050;2023-01-13T05:12:50;3.97;;;2.03;;
51184;SDS011;37248;59.350;18.050;2023-01-13T05:15:34;3.63;;;2.53;;
51184;SDS011;37248;59.350;18.050;2023-01-13T05:18:17;6.03;;;2.55;;
51184;SDS011;37248;59.350;18.050;2023-01-13T05:20:43;5.70;;;2.47;;
51184;SDS011;37248;59.350;18.050;2023-01-13T05:23:09;2.92;;;2.35;;
51184;SDS011;37248;59.350;18.050;2023-01-13T05:25:52;4.53;;;2.20;;
51184;SDS011;37248;59.350;18.050;2023-01-13T05:28:18;4.53;;;2.20;;
51184;SDS011;37248;59.350;18.050;2023-01-13T05:30:44;4.20;;;2.10;;
51184;SDS011;37248;59.350;18.050;2023-01-13T05:33:10;3.40;;;2.20;;
51184;SDS011;37248;59.350;18.050;2023-01-13T05:35:37;3.88;;;2.20;;
51184;SDS011;37248;59.350;18.050;2023-01-13T05:38:02;3.83;;;1.90;;
51184;SDS011;37248;59.350;18.050;2023-01-13T05:40:28;3.20;;;2.10;;
51184;SDS011;37248;59.350;18.050;2023-01-13T05:43:13;3.25;;;2.10;;
51184;SDS011;37248;59.350;18.050;2023-01-13T05:45:45;2.70;;;1.83;;
51184;SDS011;37248;59.350;18.050;2023-01-13T05:48:11;2.60;;;1.80;;
51184;SDS011;37248;59.350;18.050;2023-01-13T05:50:36;3.88;;;1.80;;
51184;SDS011;37248;59.350;18.050;2023-01-13T05:53:01;4.07;;;2.00;;
51184;SDS011;37248;59.350;18.050;2023-01-13T05:55:27;3.47;;;1.97;;
51184;SDS011;37248;59.350;18.050;2023-01-13T05:57:52;3.20;;;2.07;;
51184;SDS011;37248;59.350;18.050;2023-01-13T06:00:17;4.50;;;2.00;;
51184;SDS011;37248;59.350;18.050;2023-01-13T06:02:43;2.80;;;1.70;;
51184;SDS011;37248;59.350;18.050;2023-01-13T06:05:08;4.40;;;2.00;;
51184;SDS011;37248;59.350;18.050;2023-01-13T06:07:33;4.43;;;1.83;;
51184;SDS011;37248;59.350;18.050;2023-01-13T06:09:59;2.20;;;1.80;;
51184;SDS011;37248;59.350;18.050;2023-01-13T06:12:24;3.60;;;1.90;;
51184;SDS011;37248;59.350;18.050;2023-01-13T06:14:49;2.07;;;1.67;;
51184;SDS011;37248;59.350;18.050;2023-01-13T06:17:15;2.67;;;1.80;;
51184;SDS011;37248;59.350;18.050;2023-01-13T06:19:40;3.50;;;1.60;;
51184;SDS011;37248;59.350;18.050;2023-01-13T06:22:15;4.20;;;1.83;;
51184;SDS011;37248;59.350;18.050;2023-01-13T06:24:41;4.30;;;1.95;;
51184;SDS011;37248;59.350;18.050;2023-01-13T06:27:07;5.70;;;1.92;;
51184;SDS011;37248;59.350;18.050;2023-01-13T06:29:33;5.30;;;2.13;;
51184;SDS011;37248;59.350;18.050;2023-01-13T06:32:00;5.97;;;2.23;;
51184;SDS011;37248;59.350;18.050;2023-01-13T06:34:26;11.50;;;2.50;;
51184;SDS011;37248;59.350;18.050;2023-01-13T06:36:51;6.00;;;2.00;;
51184;SDS011;37248;59.350;18.050;2023-01-13T06:39:18;11.83;;;2.37;;
51184;SDS011;37248;59.350;18.050;2023-01-13T06:41:44;8.53;;;2.60;;
51184;SDS011;37248;59.350;18.050;2023-01-13T06:44:30;12.13;;;2.40;;
51184;SDS011;37248;59.350;18.050;2023-01-13T06:46:55;10.13;;;2.47;;
51184;SDS011;37248;59.350;18.050;2023-01-13T06:49:21;11.80;;;2.55;;
51184;SDS011;37248;59.350;18.050;2023-01-13T06:51:46;9.57;;;2.33;;
51184;SDS011;37248;59.350;18.050;2023-01-13T06:54:11;13.05;;;2.35;;
51184;SDS011;37248;59.350;18.050;2023-01-13T06:56:36;8.03;;;2.40;;
51184;SDS011;37248;59.350;18.050;2023-01-13T06:59:02;5.80;;;2.00;;
51184;SDS011;37248;59.350;18.050;2023-01-13T07:01:27;6.83;;;2.10;;
51184;SDS011;37248;59.350;18.050;2023-01-13T07:03:52;7.10;;;2.20;;
51184;SDS011;37248;59.350;18.050;2023-01-13T07:06:17;4.67;;;1.93;;
51184;SDS011;37248;59.350;18.050;2023-01-13T07:08:43;6.83;;;1.83;;
51184;SDS011;37248;59.350;18.050;2023-01-13T07:11:08;3.83;;;1.50;;
51184;SDS011;37248;59.350;18.050;2023-01-13T07:13:34;6.87;;;1.60;;
51184;SDS011;37248;59.350;18.050;2023-01-13T07:16:18;3.92;;;1.60;;
51184;SDS011;37248;59.350;18.050;2023-01-13T07:18:43;3.33;;;1.63;;
51184;SDS011;37248;59.350;18.050;2023-01-13T07:21:10;9.17;;;1.70;;
51184;SDS011;37248;59.350;18.050;2023-01-13T07:23:37;3.85;;;1.85;;
51184;SDS011;37248;59.350;18.050;2023-01-13T07:26:04;7.40;;;1.92;;
51184;SDS011;37248;59.350;18.050;2023-01-13T07:28:30;9.23;;;1.85;;
51184;SDS011;37248;59.350;18.050;2023-01-13T07:30:56;6.97;;;1.70;;
51184;SDS011;37248;59.350;18.050;2023-01-13T07:33:21;9.10;;;1.70;;
51184;SDS011;37248;59.350;18.050;2023-01-13T07:35:48;4.47;;;1.30;;
51184;SDS011;37248;59.350;18.050;2023-01-13T07:38:19;3.42;;;1.40;;
51184;SDS011;37248;59.350;18.050;2023-01-13T07:40:44;5.33;;;1.30;;
51184;SDS011;37248;59.350;18.050;2023-01-13T07:43:10;4.87;;;1.63;;
51184;SDS011;37248;59.350;18.050;2023-01-13T07:45:55;4.75;;;1.42;;
51184;SDS011;37248;59.350;18.050;2023-01-13T07:48:20;6.50;;;1.40;;
51184;SDS011;37248;59.350;18.050;2023-01-13T07:50:46;3.37;;;1.40;;
51184;SDS011;37248;59.350;18.050;2023-01-13T07:53:11;2.80;;;1.40;;
51184;SDS011;37248;59.350;18.050;2023-01-13T07:55:39;3.17;;;1.33;;
51184;SDS011;37248;59.350;18.050;2023-01-13T07:58:05;5.70;;;1.30;;
51184;SDS011;37248;59.350;18.050;2023-01-13T08:00:30;3.67;;;1.07;;
51184;SDS011;37248;59.350;18.050;2023-01-13T08:02:55;4.20;;;1.30;;
51184;SDS011;37248;59.350;18.050;2023-01-13T08:05:23;3.58;;;1.48;;
51184;SDS011;37248;59.350;18.050;2023-01-13T08:07:49;2.57;;;1.17;;
51184;SDS011;37248;59.350;18.050;2023-01-13T08:10:14;2.83;;;1.40;;
51184;SDS011;37248;59.350;18.050;2023-01-13T08:12:39;1.97;;;1.10;;
51184;SDS011;37248;59.350;18.050;2023-01-13T08:15:23;2.78;;;0.98;;
51184;SDS011;37248;59.350;18.050;2023-01-13T08:17:48;3.33;;;1.33;;
51184;SDS011;37248;59.350;18.050;2023-01-13T08:20:14;4.40;;;1.67;;
51184;SDS011;37248;59.350;18.050;2023-01-13T08:22:39;4.10;;;1.07;;
51184;SDS011;37248;59.350;18.050;2023-01-13T08:25:04;5.57;;;1.13;;
51184;SDS011;37248;59.350;18.050;2023-01-13T08:27:30;1.50;;;0.90;;
51184;SDS011;37248;59.350;18.050;2023-01-13T08:29:55;1.90;;;0.90;;
51184;SDS011;37248;59.350;18.050;2023-01-13T08:32:20;2.30;;;1.07;;
51184;SDS011;37248;59.350;18.050;2023-01-13T08:34:45;1.53;;;0.90;;
51184;SDS011;37248;59.350;18.050;2023-01-13T08:37:11;2.30;;;1.17;;
51184;SDS011;37248;59.350;18.050;2023-01-13T08:39:36;3.00;;;1.30;;
51184;SDS011;37248;59.350;18.050;2023-01-13T08:42:02;3.33;;;1.20;;
51184;SDS011;37248;59.350;18.050;2023-01-13T08:44:28;3.92;;;1.40;;
51184;SDS011;37248;59.350;18.050;2023-01-13T08:46:54;2.35;;;1.00;;
51184;SDS011;37248;59.350;18.050;2023-01-13T08:49:19;3.03;;;1.10;;
51184;SDS011;37248;59.350;18.050;2023-01-13T08:51:45;2.20;;;1.13;;
51184;SDS011;37248;59.350;18.050;2023-01-13T08:54:10;1.92;;;0.90;;
51184;SDS011;37248;59.350;18.050;2023-01-13T08:56:36;1.90;;;1.03;;
51184;SDS011;37248;59.350;18.050;2023-01-13T08:59:01;2.77;;;1.23;;
51184;SDS011;37248;59.350;18.050;2023-01-13T09:01:27;3.42;;;1.10;;
51184;SDS011;37248;59.350;18.050;2023-01-13T09:03:52;2.10;;;1.20;;
51184;SDS011;37248;59.350;18.050;2023-01-13T09:06:18;3.90;;;1.10;;
51184;SDS011;37248;59.350;18.050;2023-01-13T09:08:43;2.00;;;1.13;;
51184;SDS011;37248;59.350;18.050;2023-01-13T09:11:11;3.03;;;1.10;;
51184;SDS011;37248;59.350;18.050;2023-01-13T09:13:59;2.70;;;1.10;;
51184;SDS011;37248;59.350;18.050;2023-01-13T09:16:25;6.10;;;1.30;;
51184;SDS011;37248;59.350;18.050;2023-01-13T09:18:50;14.30;;;1.50;;
51184;SDS011;37248;59.350;18.050;2023-01-13T09:21:16;15.53;;;1.67;;
51184;SDS011;37248;59.350;18.050;2023-01-13T09:23:43;20.20;;;1.83;;
51184;SDS011;37248;59.350;18.050;2023-01-13T09:26:09;74.82;;;5.60;;
51184;SDS011;37248;59.350;18.050;2023-01-13T09:28:35;79.82;;;5.55;;
51184;SDS011;37248;59.350;18.050;2023-01-13T09:31:00;50.20;;;4.03;;
51184;SDS011;37248;59.350;18.050;2023-01-13T09:33:25;43.90;;;3.53;;
51184;SDS011;37248;59.350;18.050;2023-01-13T09:36:09;38.33;;;3.47;;
51184;SDS011;37248;59.350;18.050;2023-01-13T09:38:34;31.08;;;2.80;;
51184;SDS011;37248;59.350;18.050;2023-01-13T09:41:00;33.03;;;3.07;;
51184;SDS011;37248;59.350;18.050;2023-01-13T09:43:30;29.90;;;3.00;;
51184;SDS011;37248;59.350;18.050;2023-01-13T09:46:20;26.98;;;3.17;;
51184;SDS011;37248;59.350;18.050;2023-01-13T09:49:06;24.08;;;2.40;;
51184;SDS011;37248;59.350;18.050;2023-01-13T09:51:39;26.20;;;2.50;;
51184;SDS011;37248;59.350;18.050;2023-01-13T09:54:26;17.55;;;2.35;;
51184;SDS011;37248;59.350;18.050;2023-01-13T09:56:52;13.60;;;2.40;;
51184;SDS011;37248;59.350;18.050;2023-01-13T09:59:17;20.33;;;2.28;;
51184;SDS011;37248;59.350;18.050;2023-01-13T10:04:15;12.20;;;2.15;;
51184;SDS011;37248;59.350;18.050;2023-01-13T10:06:41;14.20;;;2.00;;
51184;SDS011;37248;59.350;18.050;2023-01-13T10:09:12;8.05;;;2.22;;
51184;SDS011;37248;59.350;18.050;2023-01-13T10:11:39;11.40;;;1.95;;
51184;SDS011;37248;59.350;18.050;2023-01-13T10:14:27;11.93;;;2.30;;
51184;SDS011;37248;59.350;18.050;2023-01-13T10:19:49;11.05;;;2.35;;
51184;SDS011;37248;59.350;18.050;2023-01-13T10:22:17;6.05;;;2.22;;
51184;SDS011;37248;59.350;18.050;2023-01-13T10:27:17;9.25;;;2.30;;
51184;SDS011;37248;59.350;18.050;2023-01-13T10:29:46;6.70;;;2.28;;
51184;SDS011;37248;59.350;18.050;2023-01-13T10:32:11;7.55;;;2.05;;
51184;SDS011;37248;59.350;18.050;2023-01-13T10:34:50;11.47;;;2.03;;
51184;SDS011;37248;59.350;18.050;2023-01-13T10:37:20;7.30;;;2.45;;
51184;SDS011;37248;59.350;18.050;2023-01-13T10:39:46;12.57;;;2.60;;
51184;SDS011;37248;59.350;18.050;2023-01-13T10:42:15;10.35;;;2.47;;
51184;SDS011;37248;59.350;18.050;2023-01-13T10:44:48;8.20;;;2.45;;
51184;SDS011;37248;59.350;18.050;2023-01-13T10:49:44;10.52;;;2.60;;
51184;SDS011;37248;59.350;18.050;2023-01-13T10:52:24;5.57;;;2.63;;
51184;SDS011;37248;59.350;18.050;2023-01-13T10:54:51;6.70;;;2.50;;
51184;SDS011;37248;59.350;18.050;2023-01-13T10:57:18;6.57;;;2.75;;
51184;SDS011;37248;59.350;18.050;2023-01-13T10:59:44;6.53;;;2.80;;
51184;SDS011;37248;59.350;18.050;2023-01-13T11:04:54;6.93;;;2.70;;
51184;SDS011;37248;59.350;18.050;2023-01-13T11:07:34;14.43;;;2.92;;
51184;SDS011;37248;59.350;18.050;2023-01-13T11:10:13;8.37;;;2.67;;
51184;SDS011;37248;59.350;18.050;2023-01-13T11:12:43;9.18;;;2.97;;
51184;SDS011;37248;59.350;18.050;2023-01-13T11:15:12;7.10;;;2.57;;
51184;SDS011;37248;59.350;18.050;2023-01-13T11:17:44;7.35;;;2.65;;
51184;SDS011;37248;59.350;18.050;2023-01-13T11:22:38;18.50;;;2.50;;
51184;SDS011;37248;59.350;18.050;2023-01-13T11:25:04;6.63;;;2.50;;
51184;SDS011;37248;59.350;18.050;2023-01-13T11:27:47;9.18;;;2.80;;
51184;SDS011;37248;59.350;18.050;2023-01-13T11:30:18;8.02;;;2.60;;
51184;SDS011;37248;59.350;18.050;2023-01-13T11:35:29;7.53;;;2.60;;
51184;SDS011;37248;59.350;18.050;2023-01-13T11:38:00;8.38;;;2.15;;
51184;SDS011;37248;59.350;18.050;2023-01-13T11:40:41;9.18;;;2.30;;
51184;SDS011;37248;59.350;18.050;2023-01-13T11:45:46;6.57;;;2.05;;
51184;SDS011;37248;59.350;18.050;2023-01-13T11:48:17;8.60;;;2.27;;
51184;SDS011;37248;59.350;18.050;2023-01-13T12:01:32;5.83;;;1.90;;
51184;SDS011;37248;59.350;18.050;2023-01-13T12:03:40;2.97;;;1.70;;
51184;SDS011;37248;59.350;18.050;2023-01-13T12:16:22;2.93;;;1.53;;
51184;SDS011;37248;59.350;18.050;2023-01-13T12:21:18;2.47;;;1.50;;
51184;SDS011;37248;59.350;18.050;2023-01-13T12:26:10;2.80;;;1.70;;
51184;SDS011;37248;59.350;18.050;2023-01-13T12:31:10;3.65;;;1.63;;
51184;SDS011;37248;59.350;18.050;2023-01-13T12:36:23;5.60;;;1.40;;
51184;SDS011;37248;59.350;18.050;2023-01-13T12:38:52;2.53;;;1.80;;
51184;SDS011;37248;59.350;18.050;2023-01-13T12:43:55;3.85;;;1.70;;
51184;SDS011;37248;59.350;18.050;2023-01-13T12:46:43;3.63;;;1.65;;
51184;SDS011;37248;59.350;18.050;2023-01-13T12:49:19;2.53;;;1.60;;
51184;SDS011;37248;59.350;18.050;2023-01-13T12:56:59;2.33;;;1.30;;
51184;SDS011;37248;59.350;18.050;2023-01-13T13:07:08;2.60;;;1.48;;
51184;SDS011;37248;59.350;18.050;2023-01-13T13:09:40;2.45;;;1.30;;
51184;SDS011;37248;59.350;18.050;2023-01-13T13:15:23;2.13;;;1.58;;
51184;SDS011;37248;59.350;18.050;2023-01-13T13:23:24;1.93;;;1.30;;
51184;SDS011;37248;59.350;18.050;2023-01-13T13:26:02;3.88;;;1.30;;
51184;SDS011;37248;59.350;18.050;2023-01-13T13:28:31;1.90;;;1.40;;
51184;SDS011;37248;59.350;18.050;2023-01-13T13:31:20;2.20;;;1.48;;
51184;SDS011;37248;59.350;18.050;2023-01-13T13:33:55;2.22;;;1.30;;
51184;SDS011;37248;59.350;18.050;2023-01-13T13:41:37;2.33;;;1.30;;
51184;SDS011;37248;59.350;18.050;2023-01-13T13:44:26;2.97;;;1.30;;
51184;SDS011;37248;59.350;18.050;2023-01-13T13:47:11;2.40;;;1.50;;
51184;SDS011;37248;59.350;18.050;2023-01-13T13:52:16;2.03;;;1.30;;
51184;SDS011;37248;59.350;18.050;2023-01-13T13:54:43;2.53;;;1.40;;
51184;SDS011;37248;59.350;18.050;2023-01-13T13:57:20;2.03;;;1.30;;
51184;SDS011;37248;59.350;18.050;2023-01-13T13:59:51;1.60;;;1.27;;
51184;SDS011;37248;59.350;18.050;2023-01-13T14:02:19;2.47;;;1.35;;
51184;SDS011;37248;59.350;18.050;2023-01-13T14:04:46;3.35;;;1.60;;
51184;SDS011;37248;59.350;18.050;2023-01-13T14:07:16;2.97;;;1.43;;
51184;SDS011;37248;59.350;18.050;2023-01-13T14:09:46;2.45;;;1.52;;
51184;SDS011;37248;59.350;18.050;2023-01-13T14:12:21;2.65;;;1.65;;
51184;SDS011;37248;59.350;18.050;2023-01-13T14:14:47;3.33;;;1.48;;
51184;SDS011;37248;59.350;18.050;2023-01-13T14:17:25;2.75;;;1.48;;
51184;SDS011;37248;59.350;18.050;2023-01-13T14:19:55;4.28;;;1.55;;
51184;SDS011;37248;59.350;18.050;2023-01-13T14:22:22;1.75;;;1.30;;
51184;SDS011;37248;59.350;18.050;2023-01-13T14:24:48;3.00;;;1.30;;
51184;SDS011;37248;59.350;18.050;2023-01-13T14:27:19;2.33;;;1.40;;
51184;SDS011;37248;59.350;18.050;2023-01-13T14:29:45;2.92;;;1.58;;
51184;SDS011;37248;59.350;18.050;2023-01-13T14:32:14;2.30;;;1.60;;
51184;SDS011;37248;59.350;18.050;2023-01-13T14:34:41;3.95;;;1.67;;
51184;SDS011;37248;59.350;18.050;2023-01-13T14:37:29;2.27;;;1.47;;
51184;SDS011;37248;59.350;18.050;2023-01-13T14:39:56;2.88;;;1.45;;
51184;SDS011;37248;59.350;18.050;2023-01-13T14:42:22;2.53;;;1.63;;
51184;SDS011;37248;59.350;18.050;2023-01-13T14:44:47;2.13;;;1.57;;
51184;SDS011;37248;59.350;18.050;2023-01-13T14:47:24;1.88;;;1.60;;
51184;SDS011;37248;59.350;18.050;2023-01-13T14:49:53;2.28;;;1.65;;
51184;SDS011;37248;59.350;18.050;2023-01-13T14:52:23;2.80;;;1.98;;
51184;SDS011;37248;59.350;18.050;2023-01-13T14:54:53;3.30;;;2.10;;
51184;SDS011;37248;59.350;18.050;2023-01-13T14:57:27;3.20;;;2.17;;
51184;SDS011;37248;59.350;18.050;2023-01-13T15:07:59;3.55;;;2.80;;
51184;SDS011;37248;59.350;18.050;2023-01-13T15:10:29;3.88;;;2.78;;
51184;SDS011;37248;59.350;18.050;2023-01-13T15:12:56;3.47;;;3.00;;
51184;SDS011;37248;59.350;18.050;2023-01-13T15:15:35;3.72;;;3.05;;
51184;SDS011;37248;59.350;18.050;2023-01-13T15:18:02;4.38;;;3.10;;
51184;SDS011;37248;59.350;18.050;2023-01-13T15:20:29;3.20;;;2.70;;
51184;SDS011;37248;59.350;18.050;2023-01-13T15:22:55;3.47;;;2.47;;
51184;SDS011;37248;59.350;18.050;2023-01-13T15:25:22;3.00;;;2.42;;
51184;SDS011;37248;59.350;18.050;2023-01-13T15:27:47;3.13;;;2.33;;
51184;SDS011;37248;59.350;18.050;2023-01-13T15:30:19;3.03;;;2.33;;
51184;SDS011;37248;59.350;18.050;2023-01-13T15:32:45;3.40;;;2.40;;
51184;SDS011;37248;59.350;18.050;2023-01-13T15:35:14;3.27;;;2.23;;
51184;SDS011;37248;59.350;18.050;2023-01-13T15:37:40;2.65;;;2.10;;
51184;SDS011;37248;59.350;18.050;2023-01-13T15:40:10;2.93;;;2.27;;
51184;SDS011;37248;59.350;18.050;2023-01-13T15:42:36;3.20;;;2.17;;
51184;SDS011;37248;59.350;18.050;2023-01-13T15:45:20;3.72;;;2.00;;
51184;SDS011;37248;59.350;18.050;2023-01-13T15:48:04;2.73;;;2.00;;
51184;SDS011;37248;59.350;18.050;2023-01-13T15:50:29;3.30;;;1.90;;
51184;SDS011;37248;59.350;18.050;2023-01-13T15:52:54;2.70;;;1.87;;
51184;SDS011;37248;59.350;18.050;2023-01-13T15:55:20;2.80;;;1.73;;
51184;SDS011;37248;59.350;18.050;2023-01-13T15:57:47;2.63;;;1.63;;
51184;SDS011;37248;59.350;18.050;2023-01-13T16:00:14;2.85;;;1.90;;
51184;SDS011;37248;59.350;18.050;2023-01-13T16:02:39;2.20;;;1.60;;
51184;SDS011;37248;59.350;18.050;2023-01-13T16:05:05;2.27;;;1.67;;
51184;SDS011;37248;59.350;18.050;2023-01-13T16:07:30;2.57;;;1.77;;
51184;SDS011;37248;59.350;18.050;2023-01-13T16:09:55;2.50;;;1.60;;
51184;SDS011;37248;59.350;18.050;2023-01-13T16:12:21;2.67;;;1.60;;
51184;SDS011;37248;59.350;18.050;2023-01-13T16:14:46;2.43;;;1.73;;
51184;SDS011;37248;59.350;18.050;2023-01-13T16:17:13;2.90;;;1.50;;
51184;SDS011;37248;59.350;18.050;2023-01-13T16:19:39;2.90;;;1.52;;
51184;SDS011;37248;59.350;18.050;2023-01-13T16:22:04;3.38;;;1.80;;
51184;SDS011;37248;59.350;18.050;2023-01-13T16:24:29;2.90;;;1.43;;
51184;SDS011;37248;59.350;18.050;2023-01-13T16:26:55;1.97;;;1.40;;
51184;SDS011;37248;59.350;18.050;2023-01-13T16:29:20;2.83;;;1.50;;
51184;SDS011;37248;59.350;18.050;2023-01-13T16:31:45;2.25;;;1.60;;
51184;SDS011;37248;59.350;18.050;2023-01-13T16:34:10;4.43;;;1.53;;
51184;SDS011;37248;59.350;18.050;2023-01-13T16:36:36;5.40;;;1.77;;
51184;SDS011;37248;59.350;18.050;2023-01-13T16:39:02;3.60;;;1.50;;
51184;SDS011;37248;59.350;18.050;2023-01-13T16:41:27;10.87;;;1.90;;
51184;SDS011;37248;59.350;18.050;2023-01-13T16:43:52;11.07;;;2.13;;
51184;SDS011;37248;59.350;18.050;2023-01-13T16:48:43;13.47;;;1.90;;
51184;SDS011;37248;59.350;18.050;2023-01-13T16:51:08;6.33;;;1.83;;